Gas Snapper — V7TZ3 — position and weather

sailwx.info

Track history (hours):
 
Tides and Currents Weather Stations Pressure Air Temp Water Temp Dewpoint Dewpoint Depression Visibility Wind Speed Wind Dir Waves Ship Positions

Gas Snapper

Last reported at 2016-May-03 18:28 UTC. Time now 2016-May-24 17:44 UTC.
Position N 31°24' E 032°19'.
Warning: this ship's position is 20 days out of date.

Length 174 m; draft 10.5 m.

Type: Ship (hazmat cat D). MMSI: 538003911.

Date/timePositionNaut miles runAvg speedWind from/ knotsBaromVisibWave heightAir tempDewpointWater temp
2016-May-03 18:28N 31°24' E 032°19'0 0.0
2016-May-03 16:04N 31°24' E 032°19'0 0.0
2016-May-03 15:13N 31°24' E 032°19'0 0.1
2016-May-03 14:31N 31°24' E 032°19'0 0.0
2016-May-03 13:19N 31°24' E 032°19'0 0.0
2016-May-03 12:31N 31°24' E 032°19'1 1.1
2016-May-03 11:33N 31°25' E 032°19'1111.1
2016-May-03 10:33N 31°33' E 032°11'1614.2
2016-May-03 09:26N 31°44' E 031°57'3215.3
2016-May-03 07:22N 32°07' E 031°31'1415.5
2016-May-03 06:27N 32°17' E 031°20'1415.4
2016-May-03 05:33N 32°28' E 031°09'1515.0
2016-May-03 04:33N 32°39' E 030°57'1514.5
2016-May-03 03:29N 32°51' E 030°45'1414.8
2016-May-03 02:33N 33°01' E 030°34'1514.9
2016-May-03 01:33N 33°12' E 030°22'32915.0
2016-May-02 03:33N 37°15' E 025°51'1414.1
2016-May-02 02:33N 37°28' E 025°43'1514.9
2016-May-02 01:33N 37°43' E 025°43'235 9.8
2016-May-01 01:33N 40°51' E 028°46'14 1.7
2016-Apr-30 17:30N 41°00' E 028°60'28911.1
2016-Apr-29 15:24N 45°37' E 030°55'3110.9
2016-Apr-29 12:33N 46°07' E 031°04'1110.2
2016-Apr-29 11:27N 46°16' E 030°53'9 9.9
2016-Apr-29 10:33N 46°25' E 030°55'9 8.8
2016-Apr-29 09:33N 46°33' E 030°59'4 0.7
2016-Apr-29 03:22N 46°37' E 031°01'1 0.0
2016-Apr-28 01:33N 46°36' E 031°01'5 5.0
2016-Apr-28 00:32N 46°31' E 030°59'0 0.0
2016-Apr-27 23:32N 46°31' E 030°59'0 0.0
2016-Apr-27 22:23N 46°31' E 030°59'0 0.0
2016-Apr-27 21:20N 46°31' E 030°59'0 0.0
2016-Apr-27 20:32N 46°31' E 030°59'0 0.0
2016-Apr-27 19:20N 46°31' E 030°59'0 0.0
2016-Apr-27 18:20N 46°31' E 030°59'0 0.0
2016-Apr-27 17:29N 46°31' E 030°59'0 0.0
2016-Apr-27 16:32N 46°31' E 030°59'0 0.0
2016-Apr-27 15:29N 46°31' E 030°59'0 0.0
2016-Apr-27 14:32N 46°31' E 030°59'0 0.0
2016-Apr-27 13:17N 46°31' E 030°59'0 0.0
2016-Apr-27 12:32N 46°31' E 030°59'0 0.0
2016-Apr-27 11:32N 46°31' E 030°59'0 0.0
2016-Apr-27 10:32N 46°31' E 030°59'0 0.0
2016-Apr-27 09:26N 46°31' E 030°59'0 0.0
2016-Apr-27 08:26N 46°31' E 030°59'0 0.0
2016-Apr-27 07:29N 46°31' E 030°59'0 0.1
2016-Apr-27 06:33N 46°31' E 030°59'1010.3
2016-Apr-27 05:33N 46°21' E 030°57'34410.3
2016-Apr-25 20:14N 40°49' E 028°57'0 0.3
2016-Apr-25 19:34N 40°48' E 028°57'0 0.4
2016-Apr-25 18:33N 40°48' E 028°57'0 0.2
2016-Apr-25 17:34N 40°48' E 028°56'1 1.5
2016-Apr-25 16:34N 40°49' E 028°58'0 0.1
2016-Apr-25 15:29N 40°49' E 028°58'0 0.2
2016-Apr-25 14:34N 40°49' E 028°57'0 0.3
2016-Apr-25 13:33N 40°49' E 028°57'0 0.4
2016-Apr-25 12:34N 40°49' E 028°57'1 0.3
2016-Apr-25 10:33N 40°50' E 028°56'1 0.5
2016-Apr-25 09:25N 40°50' E 028°55'1 0.8
2016-Apr-25 08:28N 40°50' E 028°56'3 2.9
2016-Apr-25 07:33N 40°49' E 028°53'207 6.2
2016-Apr-23 22:11N 38°51' E 025°12'1116.5
2016-Apr-23 21:30N 38°41' E 025°06'3216.3
2016-Apr-23 19:33N 38°12' E 024°47'1615.7
2016-Apr-23 18:33N 37°58' E 024°39'  
Track history (hours):
 
Tides and Currents Weather Stations Pressure Air Temp Water Temp Dewpoint Dewpoint Depression Visibility Wind Speed Wind Dir Waves Ship Positions

Gas Snapper

Last reported at 2016-May-03 18:28 UTC. Time now 2016-May-24 17:44 UTC.
Position N 31°24' E 032°19'.
Warning: this ship's position is 20 days out of date.

Length 174 m; draft 10.5 m.

Type: Ship (hazmat cat D). MMSI: 538003911.

Date/timePositionNaut miles runAvg speedWind from/ knotsBaromVisibWave heightAir tempDewpointWater temp
2016-May-03 18:28N 31°24' E 032°19'0 0.0
2016-May-03 16:04N 31°24' E 032°19'0 0.0
2016-May-03 15:13N 31°24' E 032°19'0 0.1
2016-May-03 14:31N 31°24' E 032°19'0 0.0
2016-May-03 13:19N 31°24' E 032°19'0 0.0
2016-May-03 12:31N 31°24' E 032°19'1 1.1
2016-May-03 11:33N 31°25' E 032°19'1111.1
2016-May-03 10:33N 31°33' E 032°11'1614.2
2016-May-03 09:26N 31°44' E 031°57'3215.3
2016-May-03 07:22N 32°07' E 031°31'1415.5
2016-May-03 06:27N 32°17' E 031°20'1415.4
2016-May-03 05:33N 32°28' E 031°09'1515.0
2016-May-03 04:33N 32°39' E 030°57'1514.5
2016-May-03 03:29N 32°51' E 030°45'1414.8
2016-May-03 02:33N 33°01' E 030°34'1514.9
2016-May-03 01:33N 33°12' E 030°22'32915.0
2016-May-02 03:33N 37°15' E 025°51'1414.1
2016-May-02 02:33N 37°28' E 025°43'1514.9
2016-May-02 01:33N 37°43' E 025°43'235 9.8
2016-May-01 01:33N 40°51' E 028°46'14 1.7
2016-Apr-30 17:30N 41°00' E 028°60'28911.1
2016-Apr-29 15:24N 45°37' E 030°55'3110.9
2016-Apr-29 12:33N 46°07' E 031°04'1110.2
2016-Apr-29 11:27N 46°16' E 030°53'9 9.9
2016-Apr-29 10:33N 46°25' E 030°55'9 8.8
2016-Apr-29 09:33N 46°33' E 030°59'4 0.7
2016-Apr-29 03:22N 46°37' E 031°01'1 0.0
2016-Apr-28 01:33N 46°36' E 031°01'5 5.0
2016-Apr-28 00:32N 46°31' E 030°59'0 0.0
2016-Apr-27 23:32N 46°31' E 030°59'0 0.0
2016-Apr-27 22:23N 46°31' E 030°59'0 0.0
2016-Apr-27 21:20N 46°31' E 030°59'0 0.0
2016-Apr-27 20:32N 46°31' E 030°59'0 0.0
2016-Apr-27 19:20N 46°31' E 030°59'0 0.0
2016-Apr-27 18:20N 46°31' E 030°59'0 0.0
2016-Apr-27 17:29N 46°31' E 030°59'0 0.0
2016-Apr-27 16:32N 46°31' E 030°59'0 0.0
2016-Apr-27 15:29N 46°31' E 030°59'0 0.0
2016-Apr-27 14:32N 46°31' E 030°59'0 0.0
2016-Apr-27 13:17N 46°31' E 030°59'0 0.0
2016-Apr-27 12:32N 46°31' E 030°59'0 0.0
2016-Apr-27 11:32N 46°31' E 030°59'0 0.0
2016-Apr-27 10:32N 46°31' E 030°59'0 0.0
2016-Apr-27 09:26N 46°31' E 030°59'0 0.0
2016-Apr-27 08:26N 46°31' E 030°59'0 0.0
2016-Apr-27 07:29N 46°31' E 030°59'0 0.1
2016-Apr-27 06:33N 46°31' E 030°59'1010.3
2016-Apr-27 05:33N 46°21' E 030°57'34410.3
2016-Apr-25 20:14N 40°49' E 028°57'0 0.3
2016-Apr-25 19:34N 40°48' E 028°57'0 0.4
2016-Apr-25 18:33N 40°48' E 028°57'0 0.2
2016-Apr-25 17:34N 40°48' E 028°56'1 1.5
2016-Apr-25 16:34N 40°49' E 028°58'0 0.1
2016-Apr-25 15:29N 40°49' E 028°58'0 0.2
2016-Apr-25 14:34N 40°49' E 028°57'0 0.3
2016-Apr-25 13:33N 40°49' E 028°57'0 0.4
2016-Apr-25 12:34N 40°49' E 028°57'1 0.3
2016-Apr-25 10:33N 40°50' E 028°56'1 0.5
2016-Apr-25 09:25N 40°50' E 028°55'1 0.8
2016-Apr-25 08:28N 40°50' E 028°56'3 2.9
2016-Apr-25 07:33N 40°49' E 028°53'207 6.2
2016-Apr-23 22:11N 38°51' E 025°12'1116.5
2016-Apr-23 21:30N 38°41' E 025°06'3216.3
2016-Apr-23 19:33N 38°12' E 024°47'1615.7
2016-Apr-23 18:33N 37°58' E 024°39'  

Dump ship's entire track history